Time;durP1;ratioP1;P1;durP2;ratioP2;P2;SDS_P1;SDS_P2;PMS_P1;PMS_P2;Temp;Humidity;BMP_temperature;BMP_pressure;BME280_temperature;BME280_humidity;BME280_pressure;Samples;Min_cycle;Max_cycle;Signal;HPM_P1;HPM_P2
2022/09/29 00:00:34;;;;;;;42.05;15.45;;;5.60;99.50;;;;;;5004028;28;20026;-78
2022/09/29 00:02:59;;;;;;;45.42;14.65;;;5.60;99.50;;;;;;5007464;28;20080;-78
2022/09/29 00:05:25;;;;;;;48.17;15.25;;;5.60;99.50;;;;;;5003807;28;20061;-78
2022/09/29 00:07:50;;;;;;;50.92;15.65;;;5.60;99.60;;;;;;5001502;28;20041;-78
2022/09/29 00:10:16;;;;;;;53.25;16.08;;;5.60;99.60;;;;;;5004822;28;20097;-78
2022/09/29 00:12:41;;;;;;;49.95;15.90;;;5.70;99.70;;;;;;5006567;28;20049;-78
2022/09/29 00:15:07;;;;;;;49.13;14.75;;;5.70;99.70;;;;;;5006303;28;20038;-78
2022/09/29 00:17:33;;;;;;;54.10;16.50;;;5.70;99.60;;;;;;5003154;28;20046;-78
2022/09/29 00:19:58;;;;;;;52.17;16.02;;;5.70;99.60;;;;;;4999581;28;20152;-78
2022/09/29 00:22:24;;;;;;;54.72;15.98;;;5.70;99.70;;;;;;5009754;28;20148;-78
2022/09/29 00:24:49;;;;;;;56.53;16.33;;;5.80;99.70;;;;;;5011052;28;20076;-78
2022/09/29 00:27:16;;;;;;;50.30;15.77;;;5.90;99.80;;;;;;4996186;28;20037;-78
2022/09/29 00:29:42;;;;;;;46.00;15.85;;;5.80;99.70;;;;;;5006226;28;20159;-78
2022/09/29 00:32:07;;;;;;;52.40;16.52;;;5.80;99.60;;;;;;5006854;28;20145;-78
2022/09/29 00:34:33;;;;;;;50.78;15.18;;;5.80;99.60;;;;;;5006474;28;20041;-78
2022/09/29 00:36:58;;;;;;;51.08;16.00;;;5.70;99.60;;;;;;5004532;28;20358;-78
2022/09/29 00:39:24;;;;;;;47.55;15.43;;;5.60;99.70;;;;;;5005428;28;20080;-79
2022/09/29 00:41:49;;;;;;;48.03;14.63;;;5.60;99.70;;;;;;5005100;28;20188;-78
2022/09/29 00:44:15;;;;;;;51.33;15.18;;;5.60;99.70;;;;;;5007914;28;20053;-78
2022/09/29 00:46:45;;;;;;;61.30;16.10;;;5.60;99.80;;;;;;5008033;28;20484;-78
2022/09/29 00:49:26;;;;;;;45.53;14.90;;;5.60;99.80;;;;;;5011880;28;20034;-78
2022/09/29 00:52:00;;;;;;;51.08;15.48;;;5.70;99.90;;;;;;5014696;28;20053;-78
2022/09/29 00:54:29;;;;;;;50.05;15.23;;;5.60;99.80;;;;;;5002996;28;20070;-78
2022/09/29 00:56:57;;;;;;;54.80;16.90;;;5.70;99.90;;;;;;5004217;28;20084;-78
2022/09/29 00:59:37;;;;;;;56.72;16.67;;;5.60;99.80;;;;;;5011016;28;20030;-78
2022/09/29 01:02:04;;;;;;;45.60;14.73;;;5.60;99.80;;;;;;5005901;28;20084;-78
2022/09/29 01:04:30;;;;;;;51.60;15.57;;;5.50;99.80;;;;;;5010305;28;20128;-78
2022/09/29 01:06:57;;;;;;;48.35;15.80;;;5.40;99.80;;;;;;5022404;28;20065;-79
2022/09/29 01:09:28;;;;;;;50.50;15.98;;;5.40;99.80;;;;;;5018711;28;20038;-78
2022/09/29 01:11:57;;;;;;;;;;;5.30;99.80;;;;;;5014957;28;20051;-78
2022/09/29 01:14:24;;;;;;;56.03;14.43;;;5.30;99.90;;;;;;5009190;28;20059;-78
2022/09/29 01:16:50;;;;;;;59.72;15.80;;;5.30;99.80;;;;;;5008704;28;20037;-78
2022/09/29 01:19:39;;;;;;;50.78;15.30;;;5.20;99.80;;;;;;5010026;28;20029;-78
2022/09/29 01:22:10;;;;;;;51.40;14.77;;;5.10;99.80;;;;;;5006665;28;20064;-78
2022/09/29 01:24:59;;;;;;;54.42;15.63;;;5.20;99.90;;;;;;5003036;28;20096;-78
2022/09/29 01:27:43;;;;;;;57.55;15.95;;;5.20;99.90;;;;;;5001158;28;20046;-78
2022/09/29 01:30:27;;;;;;;63.92;16.85;;;5.20;99.90;;;;;;5011128;28;20037;-78
2022/09/29 01:33:17;;;;;;;58.20;15.95;;;5.10;99.90;;;;;;5008488;28;20070;-79
2022/09/29 01:35:45;;;;;;;45.65;15.40;;;5.10;99.90;;;;;;5004955;28;20350;-78
2022/09/29 01:38:24;;;;;;;56.58;15.88;;;5.20;99.90;;;;;;5007950;28;20316;-78
2022/09/29 01:41:01;;;;;;;61.13;16.88;;;5.10;99.90;;;;;;5002568;28;20061;-78
2022/09/29 01:43:55;;;;;;;63.08;16.10;;;5.10;99.90;;;;;;5005799;28;20068;-78
2022/09/29 01:46:27;;;;;;;52.70;16.27;;;5.20;99.90;;;;;;5010693;28;20034;-78
2022/09/29 01:48:55;;;;;;;60.15;15.93;;;5.10;99.90;;;;;;5009840;28;20108;-78
2022/09/29 01:51:34;;;;;;;55.38;16.48;;;5.00;99.90;;;;;;5009580;28;20413;-78
2022/09/29 01:54:05;;;;;;;66.38;16.20;;;5.20;99.90;;;;;;5002987;28;20169;-78
2022/09/29 01:56:39;;;;;;;59.58;17.75;;;5.20;99.90;;;;;;5007657;28;20121;-78
2022/09/29 01:59:32;;;;;;;69.20;16.60;;;5.10;99.90;;;;;;5012551;28;20034;-78
2022/09/29 02:02:05;;;;;;;61.22;16.25;;;5.10;99.90;;;;;;5004514;28;20060;-78
2022/09/29 02:04:49;;;;;;;59.05;16.25;;;5.20;99.90;;;;;;5010251;28;20159;-78
2022/09/29 02:07:43;;;;;;;68.50;16.60;;;5.20;99.90;;;;;;4999530;28;20401;-79
2022/09/29 02:10:18;;;;;;;50.35;15.82;;;5.20;99.90;;;;;;4999779;28;20089;-78
2022/09/29 02:12:45;;;;;;;67.40;17.55;;;5.20;99.90;;;;;;4997663;28;20038;-78
2022/09/29 02:15:16;;;;;;;55.15;15.73;;;5.20;99.90;;;;;;5008918;28;20074;-78
2022/09/29 02:17:46;;;;;;;55.47;16.35;;;5.20;99.90;;;;;;5007974;28;20118;-78
2022/09/29 02:20:13;;;;;;;61.03;17.20;;;5.10;99.90;;;;;;4998380;28;20482;-78
2022/09/29 02:22:39;;;;;;;67.75;17.65;;;5.20;99.90;;;;;;5005809;28;20032;-78
2022/09/29 02:25:08;;;;;;;63.60;17.98;;;5.10;99.90;;;;;;5006918;28;20030;-77
2022/09/29 02:27:34;;;;;;;64.20;17.88;;;5.10;99.90;;;;;;5007503;28;20030;-78
2022/09/29 02:30:00;;;;;;;59.75;16.83;;;5.00;99.90;;;;;;5003528;28;20521;-78
2022/09/29 02:32:28;;;;;;;59.92;17.45;;;5.10;99.90;;;;;;5008030;28;20066;-77
2022/09/29 02:34:55;;;;;;;66.55;16.70;;;5.00;99.90;;;;;;5003267;28;20081;-78
2022/09/29 02:37:39;;;;;;;60.17;17.13;;;5.10;99.90;;;;;;5003100;28;20026;-78
2022/09/29 02:40:43;;;;;;;72.03;17.25;;;5.00;99.90;;;;;;5014863;28;20033;-78
2022/09/29 02:43:31;;;;;;;63.92;16.75;;;5.00;99.90;;;;;;5007882;28;20158;-78
2022/09/29 02:46:38;;;;;;;59.45;15.82;;;5.00;99.90;;;;;;5008765;28;20037;-78
2022/09/29 02:49:32;;;;;;;62.63;16.50;;;5.00;99.90;;;;;;5000052;28;20041;-79
2022/09/29 02:52:20;;;;;;;63.55;16.60;;;5.10;99.90;;;;;;5003662;28;20042;-78
2022/09/29 02:54:58;;;;;;;69.72;17.60;;;5.00;99.90;;;;;;4995420;28;20177;-78
2022/09/29 02:57:36;;;;;;;61.33;16.92;;;5.10;99.90;;;;;;5012966;28;20092;-78
2022/09/29 03:00:14;;;;;;;70.85;16.98;;;5.10;99.90;;;;;;5014620;28;20037;-78
2022/09/29 03:02:42;;;;;;;64.57;16.48;;;5.00;99.90;;;;;;5008723;28;20030;-78
2022/09/29 03:05:10;;;;;;;71.70;17.15;;;5.00;99.90;;;;;;5006109;28;20116;-78
2022/09/29 03:07:40;;;;;;;80.50;17.30;;;5.00;99.90;;;;;;5002885;28;20419;-78
2022/09/29 03:10:07;;;;;;;56.78;15.82;;;5.00;99.90;;;;;;4996607;28;20061;-77
2022/09/29 03:12:33;;;;;;;67.95;16.77;;;4.90;99.90;;;;;;5020860;28;20030;-78
2022/09/29 03:14:58;;;;;;;66.03;17.08;;;5.00;99.90;;;;;;5007774;28;20125;-78
2022/09/29 03:17:24;;;;;;;63.00;17.45;;;5.00;99.90;;;;;;5008084;28;20106;-78
2022/09/29 03:19:49;;;;;;;59.30;16.70;;;5.00;99.90;;;;;;5007632;28;20040;-78
2022/09/29 03:22:15;;;;;;;71.68;17.60;;;5.00;99.90;;;;;;5001460;28;20045;-78
2022/09/29 03:24:40;;;;;;;74.47;17.92;;;5.00;99.90;;;;;;5004177;28;20026;-78
2022/09/29 03:27:08;;;;;;;72.82;18.33;;;5.00;99.90;;;;;;5006477;28;20045;-78
2022/09/29 03:29:34;;;;;;;72.57;19.35;;;5.10;99.90;;;;;;5006673;28;20052;-78
2022/09/29 03:32:00;;;;;;;78.53;17.40;;;5.00;99.90;;;;;;5009159;28;20129;-78
2022/09/29 03:34:25;;;;;;;86.45;18.98;;;5.00;99.90;;;;;;5017814;28;20037;-78
2022/09/29 03:36:51;;;;;;;69.50;18.10;;;5.00;99.90;;;;;;5015569;28;20037;-78
2022/09/29 03:39:16;;;;;;;74.20;18.15;;;5.00;99.90;;;;;;4998001;28;20058;-78
2022/09/29 03:41:42;;;;;;;86.07;19.27;;;5.00;99.90;;;;;;5008770;28;20561;-78
2022/09/29 03:44:07;;;;;;;79.90;18.35;;;5.00;99.90;;;;;;4995706;28;20053;-78
2022/09/29 03:46:33;;;;;;;70.40;17.65;;;4.90;99.90;;;;;;5006799;28;20034;-78
2022/09/29 03:48:58;;;;;;;83.70;19.35;;;4.90;99.90;;;;;;5009537;28;20026;-78
2022/09/29 03:51:24;;;;;;;73.35;19.20;;;5.00;99.90;;;;;;5003673;28;20060;-78
2022/09/29 03:53:49;;;;;;;69.07;19.17;;;5.00;99.90;;;;;;4997667;28;20453;-78
2022/09/29 03:56:14;;;;;;;85.32;21.40;;;4.90;99.90;;;;;;5002018;28;20057;-78
2022/09/29 03:58:40;;;;;;;80.13;19.35;;;4.90;99.90;;;;;;5002331;28;20045;-78
2022/09/29 04:01:06;;;;;;;88.47;19.42;;;4.90;99.90;;;;;;5004972;28;20061;-78
2022/09/29 04:03:32;;;;;;;90.25;20.33;;;4.90;99.90;;;;;;5002795;28;20332;-78
2022/09/29 04:05:57;;;;;;;93.32;20.23;;;4.90;99.90;;;;;;5002711;28;20033;-78
2022/09/29 04:08:23;;;;;;;86.43;19.30;;;5.00;99.90;;;;;;5005805;28;20034;-79
2022/09/29 04:10:49;;;;;;;92.63;20.90;;;4.90;99.90;;;;;;5000455;28;20184;-78
2022/09/29 04:13:15;;;;;;;94.28;20.73;;;4.90;99.90;;;;;;5001428;28;20151;-78
2022/09/29 04:15:40;;;;;;;93.15;20.25;;;4.80;99.90;;;;;;5003582;28;20383;-79
2022/09/29 04:18:06;;;;;;;87.97;20.17;;;4.80;99.90;;;;;;5001484;28;20038;-78
2022/09/29 04:20:31;;;;;;;95.00;21.58;;;4.90;99.90;;;;;;5000679;28;20033;-79
2022/09/29 04:22:57;;;;;;;96.97;21.02;;;4.90;99.90;;;;;;5012683;28;20113;-79
2022/09/29 04:25:23;;;;;;;84.63;20.20;;;5.00;99.90;;;;;;5008859;28;20163;-79
2022/09/29 04:27:49;;;;;;;98.13;22.40;;;5.00;99.90;;;;;;5011117;28;20099;-80
2022/09/29 04:30:14;;;;;;;107.78;22.05;;;5.00;99.90;;;;;;5019190;28;20167;-69
2022/09/29 04:32:40;;;;;;;99.20;22.35;;;5.00;99.90;;;;;;5006381;28;20323;-68
2022/09/29 04:35:06;;;;;;;88.03;21.85;;;5.00;99.90;;;;;;5007871;28;20123;-68
2022/09/29 04:37:31;;;;;;;115.75;22.35;;;5.00;99.90;;;;;;5023921;28;20045;-68
2022/09/29 04:39:57;;;;;;;113.25;22.08;;;4.90;99.90;;;;;;5010253;28;20457;-68
2022/09/29 04:42:22;;;;;;;108.45;22.27;;;5.00;99.90;;;;;;5006036;28;20089;-67
2022/09/29 04:44:48;;;;;;;102.28;22.52;;;5.00;99.90;;;;;;5008142;28;20507;-69
2022/09/29 04:47:14;;;;;;;113.32;22.77;;;4.90;99.90;;;;;;5005838;28;20123;-68
2022/09/29 04:49:40;;;;;;;104.93;23.05;;;4.90;99.90;;;;;;5012173;28;20466;-68
2022/09/29 04:52:05;;;;;;;117.95;23.80;;;4.90;99.90;;;;;;5003520;28;20112;-68
2022/09/29 04:54:32;;;;;;;137.75;23.38;;;5.00;99.90;;;;;;5007038;28;20034;-67
2022/09/29 04:56:58;;;;;;;135.38;22.98;;;5.00;99.90;;;;;;5002412;28;20133;-68
2022/09/29 04:59:24;;;;;;;144.55;22.73;;;5.10;99.90;;;;;;5001926;28;20382;-71
2022/09/29 05:01:49;;;;;;;152.02;23.73;;;5.00;99.90;;;;;;5003357;28;20045;-68
2022/09/29 05:04:15;;;;;;;172.38;21.98;;;5.10;99.90;;;;;;5006181;28;20078;-68
2022/09/29 05:06:40;;;;;;;141.50;22.50;;;5.00;99.90;;;;;;5006016;28;20022;-68
2022/09/29 05:09:07;;;;;;;151.32;23.38;;;5.00;99.90;;;;;;5006441;28;20422;-68
2022/09/29 05:11:33;;;;;;;139.70;23.42;;;5.00;99.90;;;;;;5001479;28;20435;-68
2022/09/29 05:13:59;;;;;;;118.32;22.13;;;5.00;99.90;;;;;;5010016;28;20040;-67
2022/09/29 05:16:25;;;;;;;153.68;23.17;;;5.00;99.90;;;;;;5007624;28;20461;-67
2022/09/29 05:18:50;;;;;;;169.48;23.67;;;5.10;99.90;;;;;;5006776;28;20153;-67
2022/09/29 05:21:16;;;;;;;107.63;22.48;;;5.10;99.90;;;;;;5008399;28;20129;-68
2022/09/29 05:23:41;;;;;;;183.13;25.00;;;5.10;99.90;;;;;;5006123;28;20042;-66
2022/09/29 05:26:08;;;;;;;196.27;25.10;;;5.10;99.90;;;;;;5000751;28;20040;-68
2022/09/29 05:28:35;;;;;;;158.48;24.33;;;5.10;99.90;;;;;;5005322;28;20053;-66
2022/09/29 05:31:05;;;;;;;194.40;25.75;;;5.10;99.90;;;;;;5006537;28;20449;-66
2022/09/29 05:33:32;;;;;;;160.40;24.08;;;5.20;99.90;;;;;;5001065;28;20477;-66
2022/09/29 05:35:57;;;;;;;163.43;23.30;;;5.20;99.90;;;;;;4999558;28;20061;-66
2022/09/29 05:38:24;;;;;;;132.77;22.88;;;5.20;99.90;;;;;;5000177;28;20462;-66
2022/09/29 05:40:50;;;;;;;164.10;24.90;;;5.20;99.90;;;;;;5000163;28;20156;-66
2022/09/29 05:43:15;;;;;;;152.00;25.23;;;5.30;99.90;;;;;;5000739;28;20116;-66
2022/09/29 05:45:41;;;;;;;110.43;22.73;;;5.30;99.90;;;;;;5009504;28;20106;-66
2022/09/29 05:48:07;;;;;;;209.80;26.73;;;5.30;99.90;;;;;;5005608;28;20022;-66
2022/09/29 05:50:40;;;;;;;137.73;25.50;;;5.30;99.90;;;;;;5005734;28;20141;-67
2022/09/29 05:53:08;;;;;;;116.78;24.38;;;5.40;99.90;;;;;;5001287;28;20052;-65
2022/09/29 05:55:37;;;;;;;134.68;23.98;;;5.40;99.90;;;;;;5006444;28;20471;-65
2022/09/29 05:58:04;;;;;;;123.22;22.88;;;5.30;99.90;;;;;;5002194;28;20160;-67
2022/09/29 06:00:30;;;;;;;124.30;24.10;;;5.40;99.90;;;;;;5003640;28;20112;-66
2022/09/29 06:02:59;;;;;;;115.13;24.63;;;5.40;99.90;;;;;;5007905;28;20449;-66
2022/09/29 06:05:25;;;;;;;110.45;23.95;;;5.50;99.90;;;;;;5004844;28;20030;-67
2022/09/29 06:07:51;;;;;;;108.10;23.27;;;5.50;99.90;;;;;;5007528;28;20109;-66
2022/09/29 06:10:18;;;;;;;109.10;24.35;;;5.50;99.90;;;;;;5003508;28;20332;-65
2022/09/29 06:12:43;;;;;;;103.15;24.50;;;5.60;99.90;;;;;;5005121;28;20041;-69
2022/09/29 06:15:10;;;;;;;118.68;24.63;;;5.60;99.90;;;;;;5002923;28;20034;-70
2022/09/29 06:17:36;;;;;;;135.75;25.65;;;5.70;99.90;;;;;;5005020;28;20121;-69
2022/09/29 06:20:02;;;;;;;158.18;24.38;;;5.70;99.90;;;;;;5007643;28;20112;-69
2022/09/29 06:22:27;;;;;;;104.43;22.50;;;5.60;99.90;;;;;;5005739;28;20042;-69
2022/09/29 06:24:53;;;;;;;107.65;22.08;;;5.60;99.90;;;;;;5005715;28;20040;-67
2022/09/29 06:27:19;;;;;;;109.35;23.33;;;5.80;99.90;;;;;;5006144;28;20067;-67
2022/09/29 06:29:45;;;;;;;121.95;25.35;;;5.70;99.90;;;;;;4996956;28;20045;-67
2022/09/29 06:32:10;;;;;;;142.60;25.02;;;5.70;99.90;;;;;;5002452;28;20056;-67
2022/09/29 06:37:33;;;;;;;137.50;24.25;;;5.80;99.90;;;;;;5008091;28;20120;-67
2022/09/29 06:37:38;;;;;;;102.65;24.42;;;5.90;99.90;;;;;;5014159;28;20033;-67
2022/09/29 06:40:08;;;;;;;119.72;23.88;;;5.90;99.90;;;;;;5005768;28;20053;-68
2022/09/29 06:42:34;;;;;;;103.32;25.42;;;5.80;99.90;;;;;;5014121;28;20216;-66
2022/09/29 06:45:00;;;;;;;101.80;23.52;;;5.90;99.90;;;;;;5010693;28;20105;-66
2022/09/29 06:47:25;;;;;;;96.53;23.83;;;6.00;99.90;;;;;;5008314;28;20042;-67
2022/09/29 06:49:51;;;;;;;97.50;24.85;;;6.10;99.90;;;;;;5004868;28;20041;-67
2022/09/29 06:52:18;;;;;;;87.28;23.23;;;6.00;99.90;;;;;;5005107;28;20493;-66
2022/09/29 06:54:43;;;;;;;86.30;21.98;;;6.00;99.90;;;;;;5005901;28;20410;-66
2022/09/29 06:57:09;;;;;;;110.95;23.67;;;6.10;99.90;;;;;;5005795;28;20119;-66
2022/09/29 06:59:35;;;;;;;105.50;23.60;;;6.10;99.90;;;;;;5008836;28;20336;-67
2022/09/29 07:02:00;;;;;;;92.03;23.15;;;6.10;99.90;;;;;;5019664;28;20033;-66
2022/09/29 07:04:26;;;;;;;99.40;22.90;;;6.20;99.90;;;;;;5014495;28;20088;-67
2022/09/29 07:06:52;;;;;;;88.78;25.42;;;6.40;99.90;;;;;;5006818;28;20509;-67
2022/09/29 07:09:18;;;;;;;98.55;23.98;;;6.60;99.90;;;;;;5007442;28;20042;-67
2022/09/29 07:11:45;;;;;;;91.05;24.88;;;6.70;99.90;;;;;;5004160;28;20049;-66
2022/09/29 07:14:15;;;;;;;100.55;24.20;;;6.80;99.90;;;;;;5009750;28;20042;-67
2022/09/29 07:16:41;;;;;;;74.60;24.00;;;6.80;99.90;;;;;;5009636;28;20374;-67
2022/09/29 07:19:07;;;;;;;102.75;23.90;;;6.90;99.90;;;;;;5007814;28;20132;-67
2022/09/29 07:21:33;;;;;;;105.47;25.55;;;6.80;99.80;;;;;;5009159;28;20129;-67
2022/09/29 07:23:58;;;;;;;106.25;23.67;;;6.80;99.80;;;;;;5001369;28;20030;-68
2022/09/29 07:26:23;;;;;;;95.03;25.02;;;6.90;99.90;;;;;;5002483;28;20041;-67
2022/09/29 07:28:49;;;;;;;101.20;25.42;;;7.00;99.90;;;;;;5022559;28;20049;-67
2022/09/29 07:31:18;;;;;;;110.55;26.58;;;7.10;99.90;;;;;;5009472;28;20037;-67
2022/09/29 07:33:45;;;;;;;113.95;25.20;;;7.10;99.80;;;;;;5008063;28;20052;-67
2022/09/29 07:36:11;;;;;;;124.85;24.50;;;7.20;99.80;;;;;;5007099;28;20045;-67
2022/09/29 07:38:37;;;;;;;74.20;23.65;;;7.30;99.60;;;;;;5005992;28;20132;-67
2022/09/29 07:41:07;;;;;;;99.22;24.25;;;7.50;99.80;;;;;;4998948;28;20380;-68
2022/09/29 07:43:32;;;;;;;79.32;23.67;;;7.50;99.50;;;;;;4989533;28;20057;-67
2022/09/29 07:46:01;;;;;;;67.95;25.70;;;7.60;99.50;;;;;;5006348;28;20030;-67
2022/09/29 07:48:28;;;;;;;74.85;25.70;;;7.90;99.70;;;;;;5009494;28;20115;-67
2022/09/29 07:51:01;;;;;;;97.40;26.05;;;8.00;99.40;;;;;;5001297;28;20033;-67
2022/09/29 07:53:28;;;;;;;110.68;27.00;;;8.00;99.20;;;;;;5005440;28;20279;-67
2022/09/29 07:55:54;;;;;;;55.83;25.80;;;8.10;99.10;;;;;;5005112;28;20038;-67
2022/09/29 07:58:19;;;;;;;67.78;25.48;;;8.10;99.10;;;;;;5000292;28;20031;-66
2022/09/29 08:00:45;;;;;;;65.93;23.58;;;8.30;98.90;;;;;;5008177;28;20402;-67
2022/09/29 08:03:10;;;;;;;48.28;22.75;;;8.30;98.80;;;;;;5007923;28;20057;-67
2022/09/29 08:05:36;;;;;;;53.45;22.63;;;8.50;98.80;;;;;;5005114;28;20521;-67
2022/09/29 08:08:03;;;;;;;67.13;22.13;;;8.70;98.80;;;;;;5003526;28;20057;-67
2022/09/29 08:10:31;;;;;;;42.92;21.90;;;8.80;98.50;;;;;;5004114;28;20475;-67
2022/09/29 08:12:57;;;;;;;44.70;22.60;;;8.70;98.00;;;;;;5002366;28;20030;-70
2022/09/29 08:15:23;;;;;;;43.35;21.48;;;8.70;98.00;;;;;;5003930;28;20080;-68
2022/09/29 08:17:52;;;;;;;37.22;21.13;;;8.70;98.00;;;;;;5006922;28;20026;-67
2022/09/29 08:20:18;;;;;;;35.03;20.77;;;8.70;97.70;;;;;;5007451;28;20060;-69
2022/09/29 08:22:43;;;;;;;29.75;20.40;;;8.80;97.80;;;;;;4996429;28;20414;-67
2022/09/29 08:25:09;;;;;;;38.88;18.25;;;8.90;97.50;;;;;;5000448;28;20030;-68
2022/09/29 08:27:34;;;;;;;27.63;19.25;;;8.60;96.90;;;;;;5004840;28;20026;-67
2022/09/29 08:30:00;;;;;;;30.55;17.77;;;8.60;97.10;;;;;;5008217;28;20047;-67
2022/09/29 08:32:25;;;;;;;27.27;18.23;;;8.60;97.00;;;;;;5003088;28;20049;-67
2022/09/29 08:34:51;;;;;;;33.13;18.30;;;8.60;97.20;;;;;;5004490;28;20184;-67
2022/09/29 08:37:17;;;;;;;31.58;17.98;;;8.60;96.90;;;;;;5003067;28;20060;-67
2022/09/29 08:39:43;;;;;;;23.70;17.23;;;8.70;97.10;;;;;;5006371;28;20462;-67
2022/09/29 08:42:44;;;;;;;28.23;16.98;;;8.60;96.90;;;;;;4992360;28;20125;-67
2022/09/29 08:45:17;;;;;;;28.48;18.73;;;8.60;96.90;;;;;;5004956;28;20517;-67
2022/09/29 08:47:46;;;;;;;31.52;17.25;;;8.60;97.10;;;;;;5007374;28;20034;-67
2022/09/29 08:50:32;;;;;;;25.60;17.35;;;8.60;96.80;;;;;;5007313;28;20517;-67
2022/09/29 08:53:05;;;;;;;25.67;16.95;;;8.70;97.10;;;;;;5001671;28;20041;-67
2022/09/29 08:55:40;;;;;;;27.85;17.17;;;8.80;97.00;;;;;;4998644;28;20493;-67
2022/09/29 08:58:11;;;;;;;26.92;17.02;;;8.80;96.90;;;;;;5007250;28;20439;-66
2022/09/29 09:01:08;;;;;;;25.15;17.02;;;8.80;96.90;;;;;;5007870;28;20160;-67
2022/09/29 09:03:46;;;;;;;29.52;18.65;;;8.80;97.10;;;;;;4998226;28;20419;-68
2022/09/29 09:06:40;;;;;;;29.67;18.60;;;8.90;97.00;;;;;;4997265;28;20458;-68
2022/09/29 09:09:16;;;;;;;31.08;18.40;;;8.90;97.10;;;;;;4998677;28;20230;-67
2022/09/29 09:12:08;;;;;;;29.23;18.88;;;8.80;97.00;;;;;;5006677;28;20112;-68
2022/09/29 09:14:57;;;;;;;33.55;19.80;;;8.80;97.10;;;;;;5012000;28;20038;-67
2022/09/29 09:17:44;;;;;;;29.45;18.52;;;8.80;97.00;;;;;;5023429;28;20124;-67
2022/09/29 09:20:35;;;;;;;27.23;18.30;;;8.70;97.00;;;;;;5005795;28;20410;-67
2022/09/29 09:23:10;;;;;;;;;;;8.80;97.30;;;;;;5002305;28;20115;-67
2022/09/29 09:25:45;;;;;;;25.70;15.85;;;8.80;97.20;;;;;;4999281;28;19909;-67
2022/09/29 09:28:16;;;;;;;26.60;17.23;;;8.80;97.10;;;;;;5008183;28;20088;-67
2022/09/29 09:31:00;;;;;;;26.45;17.67;;;8.90;97.30;;;;;;5011741;28;20042;-68
2022/09/29 09:33:33;;;;;;;29.17;17.42;;;9.10;97.10;;;;;;5021647;28;20037;-68
2022/09/29 09:36:15;;;;;;;25.52;16.60;;;9.40;97.20;;;;;;5011529;28;20034;-67
2022/09/29 09:38:52;;;;;;;25.38;16.27;;;9.40;96.20;;;;;;5004624;28;20030;-68
2022/09/29 09:41:21;;;;;;;27.63;17.35;;;9.40;95.80;;;;;;5002912;28;20040;-67
2022/09/29 09:44:09;;;;;;;24.77;17.20;;;9.70;96.00;;;;;;5005840;28;20061;-67
2022/09/29 09:46:41;;;;;;;26.27;16.88;;;9.70;95.70;;;;;;5010921;28;20034;-67
2022/09/29 09:49:17;;;;;;;26.45;16.10;;;10.00;95.40;;;;;;5009979;28;20037;-67
2022/09/29 09:51:55;;;;;;;23.48;15.77;;;10.10;95.10;;;;;;5009837;28;20060;-68
2022/09/29 09:54:34;;;;;;;23.88;16.70;;;10.00;94.50;;;;;;4998019;28;20442;-68
2022/09/29 09:57:29;;;;;;;23.85;15.38;;;10.10;94.80;;;;;;4996267;28;20081;-67
2022/09/29 10:00:06;;;;;;;25.75;16.33;;;10.40;94.80;;;;;;5010916;28;20351;-68
2022/09/29 10:02:31;;;;;;;24.55;16.38;;;10.40;94.30;;;;;;5010839;28;20112;-68
2022/09/29 10:04:57;;;;;;;26.08;15.70;;;10.30;94.20;;;;;;5022673;28;20057;-67
2022/09/29 10:07:27;;;;;;;21.88;16.02;;;10.50;94.30;;;;;;5007757;28;20037;-68
2022/09/29 10:09:52;;;;;;;22.75;16.27;;;10.60;94.00;;;;;;5004936;28;20084;-67
2022/09/29 10:12:20;;;;;;;23.60;16.30;;;10.60;93.70;;;;;;5002943;28;20477;-68
2022/09/29 10:15:16;;;;;;;24.05;16.23;;;10.80;94.00;;;;;;5009719;28;20426;-68
2022/09/29 10:17:45;;;;;;;26.83;16.77;;;10.90;93.10;;;;;;5010885;28;20074;-68
2022/09/29 10:20:11;;;;;;;24.95;15.70;;;11.20;93.20;;;;;;5009904;28;20074;-67
2022/09/29 10:22:37;;;;;;;22.08;15.65;;;11.10;92.30;;;;;;5007231;28;20052;-68
2022/09/29 10:25:19;;;;;;;24.70;16.35;;;11.10;92.50;;;;;;5007184;28;20028;-68
2022/09/29 10:27:52;;;;;;;23.40;16.15;;;11.10;92.30;;;;;;5009818;28;20026;-68
2022/09/29 10:30:21;;;;;;;24.92;16.13;;;11.50;91.50;;;;;;5005176;28;20034;-68
2022/09/29 10:32:47;;;;;;;21.83;16.33;;;12.00;91.50;;;;;;5003037;28;20170;-68
2022/09/29 10:35:25;;;;;;;23.75;16.33;;;12.00;90.00;;;;;;5009790;28;20476;-67
2022/09/29 10:38:01;;;;;;;22.33;15.52;;;12.70;90.60;;;;;;5006711;28;20038;-68
2022/09/29 10:40:27;;;;;;;21.75;15.18;;;12.70;88.50;;;;;;5008740;28;20156;-68
2022/09/29 10:42:52;;;;;;;20.80;15.40;;;12.90;87.30;;;;;;5007672;28;20132;-68
2022/09/29 10:45:21;;;;;;;21.08;15.80;;;12.60;87.20;;;;;;5008061;28;20383;-68
2022/09/29 10:48:05;;;;;;;24.92;17.08;;;12.50;88.20;;;;;;4996980;28;20347;-68
2022/09/29 10:50:51;;;;;;;24.75;18.13;;;12.60;87.80;;;;;;5001965;28;20135;-68
2022/09/29 10:53:28;;;;;;;22.17;17.35;;;12.30;87.90;;;;;;5009122;28;20140;-68
2022/09/29 10:55:55;;;;;;;20.60;16.23;;;12.40;88.20;;;;;;5007964;28;20093;-67
2022/09/29 10:58:34;;;;;;;21.83;17.02;;;12.40;88.10;;;;;;5008187;28;20193;-67
2022/09/29 11:01:07;;;;;;;20.92;16.17;;;12.90;88.10;;;;;;5010018;28;20401;-68
2022/09/29 11:03:37;;;;;;;20.42;15.35;;;12.80;86.70;;;;;;5005979;28;20112;-67
2022/09/29 11:06:12;;;;;;;22.58;15.80;;;12.90;86.20;;;;;;4998866;28;20030;-67
2022/09/29 11:08:59;;;;;;;20.05;14.75;;;12.80;87.00;;;;;;5006912;28;20706;-68
2022/09/29 11:11:42;;;;;;;17.15;13.23;;;13.00;86.90;;;;;;5014656;28;20112;-67
2022/09/29 11:14:23;;;;;;;16.48;12.38;;;13.00;87.00;;;;;;5013396;28;20457;-67
2022/09/29 11:16:54;;;;;;;15.57;11.32;;;13.00;86.30;;;;;;5020130;28;20481;-67
2022/09/29 11:19:19;;;;;;;13.98;11.00;;;12.90;86.30;;;;;;5010226;28;20026;-67
2022/09/29 11:22:17;;;;;;;16.15;11.45;;;12.90;85.40;;;;;;5005902;28;20445;-67
2022/09/29 11:25:18;;;;;;;17.05;12.32;;;12.70;86.00;;;;;;4977209;28;20438;-67
2022/09/29 11:27:44;;;;;;;;;;;12.60;86.10;;;;;;4995033;28;20062;-68
2022/09/29 11:30:16;;;;;;;18.25;12.00;;;12.60;85.50;;;;;;5009599;28;19971;-67
2022/09/29 11:33:09;;;;;;;18.88;13.27;;;12.50;85.90;;;;;;5025312;28;20434;-68
2022/09/29 11:36:03;;;;;;;18.95;12.10;;;12.60;86.50;;;;;;5000828;28;20378;-67
2022/09/29 11:38:39;;;;;;;17.27;12.10;;;12.50;85.90;;;;;;5001560;28;20480;-68
2022/09/29 11:41:40;;;;;;;18.40;12.30;;;12.50;86.10;;;;;;5006900;28;20419;-69
2022/09/29 11:44:27;;;;;;;17.25;12.82;;;12.40;86.70;;;;;;5009530;28;20034;-67
2022/09/29 11:47:25;;;;;;;18.63;12.60;;;12.50;86.60;;;;;;5007577;28;20029;-67
2022/09/29 11:50:01;;;;;;;16.67;12.63;;;12.50;86.30;;;;;;5009224;28;20056;-68
2022/09/29 11:53:03;;;;;;;19.65;13.82;;;12.60;86.50;;;;;;5008909;28;20121;-68
2022/09/29 11:56:16;;;;;;;18.33;13.15;;;12.60;86.50;;;;;;5002472;28;20030;-67
2022/09/29 11:58:59;;;;;;;17.52;13.13;;;12.80;86.00;;;;;;4992705;28;20844;-67
2022/09/29 12:01:59;;;;;;;19.58;13.38;;;12.90;86.10;;;;;;5008944;28;20053;-67
2022/09/29 12:04:45;;;;;;;17.27;12.52;;;13.00;85.60;;;;;;5010610;28;20382;-66
2022/09/29 12:07:40;;;;;;;17.45;12.50;;;12.90;84.80;;;;;;5016011;28;20037;-69
2022/09/29 12:10:15;;;;;;;17.25;12.57;;;13.10;85.50;;;;;;4994194;28;20402;-67
2022/09/29 12:13:08;;;;;;;16.38;12.25;;;13.20;85.50;;;;;;4995567;28;20031;-66
2022/09/29 12:15:51;;;;;;;15.75;12.95;;;13.30;85.00;;;;;;5000908;28;20056;-66
2022/09/29 12:18:22;;;;;;;15.70;12.20;;;13.50;85.30;;;;;;5009405;28;20038;-66
2022/09/29 12:20:52;;;;;;;16.90;11.52;;;13.60;84.40;;;;;;5006684;28;20061;-68
2022/09/29 12:23:21;;;;;;;16.17;12.00;;;13.70;84.20;;;;;;5008707;28;20041;-67
2022/09/29 12:25:56;;;;;;;15.77;11.35;;;13.70;83.90;;;;;;5005106;28;20037;-66
2022/09/29 12:28:41;;;;;;;14.48;11.30;;;13.80;82.60;;;;;;5004638;28;20025;-67
2022/09/29 12:31:45;;;;;;;14.85;11.45;;;14.10;82.70;;;;;;5000674;28;20029;-66
2022/09/29 12:34:39;;;;;;;12.85;10.65;;;14.20;81.70;;;;;;4976288;28;20080;-66
2022/09/29 12:37:11;;;;;;;12.40;10.23;;;14.10;81.40;;;;;;5003663;28;20037;-66
2022/09/29 12:39:45;;;;;;;13.32;10.00;;;14.30;81.60;;;;;;5003818;28;20129;-67
2022/09/29 12:42:42;;;;;;;12.00;9.85;;;14.30;81.10;;;;;;5006086;28;20036;-65
2022/09/29 12:45:20;;;;;;;14.50;9.45;;;14.50;81.80;;;;;;5009679;28;20022;-67
2022/09/29 12:48:16;;;;;;;12.52;9.95;;;14.30;80.40;;;;;;4998002;28;20092;-67
2022/09/29 12:50:55;;;;;;;13.88;10.57;;;14.40;80.80;;;;;;5010630;28;20026;-66
2022/09/29 12:53:41;;;;;;;14.88;11.23;;;14.10;80.80;;;;;;5011544;28;20040;-66
2022/09/29 12:56:36;;;;;;;14.20;11.52;;;13.90;81.00;;;;;;5009049;28;20533;-67
2022/09/29 12:59:25;;;;;;;12.98;10.82;;;13.70;82.10;;;;;;4989599;28;20459;-65